createdAt,value
2017-04-06T00:00:39.615Z,1017.75
2017-04-06T00:01:40.854Z,1017.71
2017-04-06T00:02:42.091Z,1017.68
2017-04-06T00:03:43.357Z,1017.69
2017-04-06T00:04:44.633Z,1017.69
2017-04-06T00:05:45.797Z,1017.7
2017-04-06T00:06:47.239Z,1017.7
2017-04-06T00:07:48.592Z,1017.72
2017-04-06T00:08:49.827Z,1017.69
2017-04-06T00:09:51.058Z,1017.75
2017-04-06T00:10:52.312Z,1017.71
2017-04-06T00:11:53.551Z,1017.73
2017-04-06T00:12:55.001Z,1017.72
2017-04-06T00:13:56.255Z,1017.74
2017-04-06T00:14:57.491Z,1017.75
2017-04-06T00:15:58.726Z,1017.76
2017-04-06T00:16:59.981Z,1017.7
2017-04-06T00:18:01.202Z,1017.68
2017-04-06T00:19:02.459Z,1017.64
2017-04-06T00:20:03.718Z,1017.59
2017-04-06T00:21:04.967Z,1017.6
2017-04-06T00:22:06.205Z,1017.65
2017-04-06T00:23:07.514Z,1017.66
2017-04-06T00:24:08.868Z,1017.66
2017-04-06T00:25:10.099Z,1017.7
2017-04-06T00:26:11.374Z,1017.71
2017-04-06T00:27:12.584Z,1017.7
2017-04-06T00:28:13.823Z,1017.68
2017-04-06T00:29:15.074Z,1017.66
2017-04-06T00:30:16.284Z,1017.63
2017-04-06T00:31:17.544Z,1017.63
2017-04-06T00:32:18.928Z,1017.64
2017-04-06T00:33:20.184Z,1017.64
2017-04-06T00:34:21.417Z,1017.56
2017-04-06T00:35:22.658Z,1017.57
2017-04-06T00:36:23.915Z,1017.59
2017-04-06T00:37:25.273Z,1017.62
2017-04-06T00:38:26.540Z,1017.53
2017-04-06T00:39:27.771Z,1017.54
2017-04-06T00:40:29.001Z,1017.49
2017-04-06T00:41:30.229Z,1017.55
2017-04-06T00:42:31.493Z,1017.46
2017-04-06T00:43:32.823Z,1017.46
2017-04-06T00:44:33.961Z,1017.45
2017-04-06T00:45:35.237Z,1017.48
2017-04-06T00:46:36.571Z,1017.5
2017-04-06T00:47:37.806Z,1017.46
2017-04-06T00:48:39.041Z,1017.52
2017-04-06T00:49:40.278Z,1017.5
2017-04-06T00:50:41.625Z,1017.5
2017-04-06T00:51:43.086Z,1017.51
2017-04-06T00:52:44.343Z,1017.46
2017-04-06T00:53:45.562Z,1017.46
2017-04-06T00:54:46.815Z,1017.48
2017-04-06T00:55:48.044Z,1017.47
2017-04-06T00:56:49.308Z,1017.5
2017-04-06T00:57:50.538Z,1017.5
2017-04-06T00:58:51.778Z,1017.55
2017-04-06T00:59:53.019Z,1017.55
2017-04-06T01:00:54.251Z,1017.52
2017-04-06T01:01:55.623Z,1017.55
2017-04-06T01:02:56.949Z,1017.51
2017-04-06T01:03:58.186Z,1017.52
2017-04-06T01:04:59.444Z,1017.49
2017-04-06T01:06:00.681Z,1017.48
2017-04-06T01:07:01.932Z,1017.49
2017-04-06T01:08:03.235Z,1017.45
2017-04-06T01:09:04.522Z,1017.47
2017-04-06T01:10:05.780Z,1017.46
2017-04-06T01:11:06.996Z,1017.45
2017-04-06T01:12:08.258Z,1017.45
2017-04-06T01:13:09.522Z,1017.44
2017-04-06T01:14:10.755Z,1017.37
2017-04-06T01:15:11.990Z,1017.39
2017-04-06T01:16:13.247Z,1017.43
2017-04-06T01:17:14.490Z,1017.35
2017-04-06T01:18:15.729Z,1017.4
2017-04-06T01:19:16.974Z,1017.42
2017-04-06T01:20:18.244Z,1017.45
2017-04-06T01:21:19.462Z,1017.41
2017-04-06T01:22:20.840Z,1017.5
2017-04-06T01:23:22.159Z,1017.41
2017-04-06T01:24:23.405Z,1017.38
2017-04-06T01:25:24.644Z,1017.4
2017-04-06T01:26:25.877Z,1017.48
2017-04-06T01:27:27.229Z,1017.47
2017-04-06T01:28:28.504Z,1017.51
2017-04-06T01:29:29.738Z,1017.46
2017-04-06T01:30:30.976Z,1017.43
2017-04-06T01:31:32.223Z,1017.43
2017-04-06T01:32:33.494Z,1017.42
2017-04-06T01:33:34.745Z,1017.31
2017-04-06T01:34:35.978Z,1017.35
2017-04-06T01:35:37.292Z,1017.42
2017-04-06T01:36:38.561Z,1017.46
2017-04-06T01:37:39.805Z,1017.45
2017-04-06T01:38:41.020Z,1017.47
2017-04-06T01:39:42.271Z,1017.44
2017-04-06T01:40:43.566Z,1017.4
2017-04-06T01:41:44.809Z,1017.35
2017-04-06T01:42:46.046Z,1017.34
2017-04-06T01:43:47.289Z,1017.34
2017-04-06T01:44:48.523Z,1017.35
2017-04-06T01:45:49.763Z,1017.36
2017-04-06T01:46:51.102Z,1017.38
2017-04-06T01:47:52.333Z,1017.36
2017-04-06T01:48:53.568Z,1017.32
2017-04-06T01:49:54.809Z,1017.35
2017-04-06T01:50:56.046Z,1017.32
2017-04-06T01:51:57.287Z,1017.37
2017-04-06T01:52:58.510Z,1017.31
2017-04-06T01:53:59.751Z,1017.33
2017-04-06T01:55:01.078Z,1017.32
2017-04-06T01:56:02.424Z,1017.3
2017-04-06T01:57:03.647Z,1017.36
2017-04-06T01:58:04.868Z,1017.42
2017-04-06T01:59:06.120Z,1017.37
2017-04-06T02:00:07.345Z,1017.34
2017-04-06T02:01:08.584Z,1017.36
2017-04-06T02:02:09.862Z,1017.35
2017-04-06T02:03:11.080Z,1017.38
2017-04-06T02:04:12.323Z,1017.4
2017-04-06T02:05:13.576Z,1017.44
2017-04-06T02:06:14.824Z,1017.43
2017-04-06T02:07:16.060Z,1017.44
2017-04-06T02:08:17.301Z,1017.47
2017-04-06T02:09:18.538Z,1017.47
2017-04-06T02:10:19.775Z,1017.43
2017-04-06T02:11:21.013Z,1017.39
2017-04-06T02:12:22.270Z,1017.36
2017-04-06T02:13:23.600Z,1017.41
2017-04-06T02:14:24.859Z,1017.4
2017-04-06T02:15:26.101Z,1017.42
2017-04-06T02:16:27.322Z,1017.43
2017-04-06T02:17:28.550Z,1017.36
2017-04-06T02:18:29.826Z,1017.36
2017-04-06T02:19:31.268Z,1017.38
2017-04-06T02:20:32.510Z,1017.42
2017-04-06T02:21:33.748Z,1017.47
2017-04-06T02:22:35.005Z,1017.44
2017-04-06T02:23:36.260Z,1017.49
2017-04-06T02:24:37.505Z,1017.51
2017-04-06T02:25:38.732Z,1017.52
2017-04-06T02:26:39.955Z,1017.48
2017-04-06T02:27:41.189Z,1017.5
2017-04-06T02:28:42.420Z,1017.49
2017-04-06T02:29:43.651Z,1017.5
2017-04-06T02:30:44.912Z,1017.55
2017-04-06T02:31:46.226Z,1017.54
2017-04-06T02:32:47.458Z,1017.6
2017-04-06T02:33:48.705Z,1017.59
2017-04-06T02:34:49.955Z,1017.55
2017-04-06T02:35:51.205Z,1017.55
2017-04-06T02:36:52.428Z,1017.55
2017-04-06T02:37:53.798Z,1017.63
2017-04-06T02:38:55.038Z,1017.59
2017-04-06T02:39:56.313Z,1017.58
2017-04-06T02:40:57.569Z,1017.65
2017-04-06T02:41:58.769Z,1017.63
2017-04-06T02:43:00.055Z,1017.65
2017-04-06T02:44:01.361Z,1017.63
2017-04-06T02:45:02.590Z,1017.62
2017-04-06T02:46:03.828Z,1017.68
2017-04-06T02:47:05.066Z,1017.62
2017-04-06T02:48:06.297Z,1017.64
2017-04-06T02:49:07.539Z,1017.65
2017-04-06T02:50:08.777Z,1017.64
2017-04-06T02:51:10.008Z,1017.65
2017-04-06T02:52:11.413Z,1017.59
2017-04-06T02:53:12.646Z,1017.63
2017-04-06T02:54:13.872Z,1017.62
2017-04-06T02:55:15.110Z,1017.63
2017-04-06T02:56:16.343Z,1017.64
2017-04-06T02:57:17.590Z,1017.61
2017-04-06T02:58:18.838Z,1017.66
2017-04-06T02:59:20.083Z,1017.64
2017-04-06T03:00:21.317Z,1017.62
2017-04-06T03:01:22.556Z,1017.62
2017-04-06T03:02:23.788Z,1017.61
2017-04-06T03:03:25.097Z,1017.59
2017-04-06T03:04:26.336Z,1017.63
2017-04-06T03:05:27.595Z,1017.63
2017-04-06T03:06:28.868Z,1017.63
2017-04-06T03:07:30.099Z,1017.67
2017-04-06T03:08:31.337Z,1017.66
2017-04-06T03:09:32.600Z,1017.73
2017-04-06T03:10:33.806Z,1017.72
2017-04-06T03:11:35.051Z,1017.71
2017-04-06T03:12:36.288Z,1017.7
2017-04-06T03:13:37.527Z,1017.7
2017-04-06T03:14:38.775Z,1017.7
2017-04-06T03:15:40.008Z,1017.72
2017-04-06T03:16:41.243Z,1017.71
2017-04-06T03:17:42.476Z,1017.71
2017-04-06T03:18:43.709Z,1017.74
2017-04-06T03:19:45.003Z,1017.75
2017-04-06T03:20:46.282Z,1017.76
2017-04-06T03:21:47.493Z,1017.78
2017-04-06T03:22:48.738Z,1017.75
2017-04-06T03:23:50.021Z,1017.75
2017-04-06T03:24:51.295Z,1017.74
2017-04-06T03:25:52.494Z,1017.78
2017-04-06T03:26:53.726Z,1017.81
2017-04-06T03:27:54.966Z,1017.8
2017-04-06T03:28:56.205Z,1017.8
2017-04-06T03:29:57.434Z,1017.8
2017-04-06T03:30:58.698Z,1017.83
2017-04-06T03:31:59.921Z,1017.83
2017-04-06T03:33:01.170Z,1017.84
2017-04-06T03:34:02.440Z,1017.88
2017-04-06T03:35:03.683Z,1017.83
2017-04-06T03:36:04.910Z,1017.85
2017-04-06T03:37:06.161Z,1017.82
2017-04-06T03:38:07.446Z,1017.84
2017-04-06T03:39:08.755Z,1017.9
2017-04-06T03:40:09.994Z,1017.92
2017-04-06T03:41:11.235Z,1017.96
2017-04-06T03:42:12.501Z,1017.96
2017-04-06T03:43:13.726Z,1017.95
2017-04-06T03:44:15.000Z,1017.92
2017-04-06T03:45:16.259Z,1017.89
2017-04-06T03:46:17.482Z,1017.86
2017-04-06T03:47:18.746Z,1017.87
2017-04-06T03:48:19.969Z,1017.96
2017-04-06T03:49:21.249Z,1017.99
2017-04-06T03:50:22.510Z,1017.99
2017-04-06T03:51:23.739Z,1018.01
2017-04-06T03:52:24.993Z,1018.05
2017-04-06T03:53:26.208Z,1018.11
2017-04-06T03:54:27.453Z,1018.12
2017-04-06T03:55:28.684Z,1018.13
2017-04-06T03:56:29.962Z,1018.14
2017-04-06T03:57:31.224Z,1018.13
2017-04-06T03:58:32.540Z,1018.12
2017-04-06T03:59:33.779Z,1018.11
2017-04-06T04:00:35.039Z,1018.1
2017-04-06T04:01:36.259Z,1018.18
2017-04-06T04:02:37.539Z,1018.11
2017-04-06T04:03:38.775Z,1018.19
2017-04-06T04:04:40.033Z,1018.21
2017-04-06T04:05:41.337Z,1018.21
2017-04-06T04:06:42.568Z,1018.24
2017-04-06T04:07:43.826Z,1018.22
2017-04-06T04:08:45.069Z,1018.25
2017-04-06T04:09:46.302Z,1018.35
2017-04-06T04:10:47.535Z,1018.36
2017-04-06T04:11:48.862Z,1018.35
2017-04-06T04:12:50.102Z,1018.32
2017-04-06T04:13:51.327Z,1018.34
2017-04-06T04:14:52.602Z,1018.33
2017-04-06T04:15:53.798Z,1018.34
2017-04-06T04:16:55.081Z,1018.31
2017-04-06T04:17:56.368Z,1018.38
2017-04-06T04:18:57.605Z,1018.37
2017-04-06T04:19:58.895Z,1018.41
2017-04-06T04:21:00.134Z,1018.44
2017-04-06T04:22:01.385Z,1018.41
2017-04-06T04:23:02.626Z,1018.44
2017-04-06T04:24:03.854Z,1018.44
2017-04-06T04:25:05.103Z,1018.46
2017-04-06T04:26:06.351Z,1018.45
2017-04-06T04:27:07.592Z,1018.48
2017-04-06T04:28:08.839Z,1018.47
2017-04-06T04:29:10.108Z,1018.5
2017-04-06T04:30:11.525Z,1018.52
2017-04-06T04:31:12.818Z,1018.5
2017-04-06T04:32:14.047Z,1018.51
2017-04-06T04:33:15.274Z,1018.55
2017-04-06T04:34:16.503Z,1018.54
2017-04-06T04:35:17.748Z,1018.51
2017-04-06T04:36:19.130Z,1018.57
2017-04-06T04:37:20.382Z,1018.54
2017-04-06T04:38:21.628Z,1018.54
2017-04-06T04:39:22.868Z,1018.5
2017-04-06T04:40:24.097Z,1018.52
2017-04-06T04:41:25.366Z,1018.51
2017-04-06T04:42:26.621Z,1018.51
2017-04-06T04:43:27.854Z,1018.52
2017-04-06T04:44:29.112Z,1018.5
2017-04-06T04:45:30.326Z,1018.57
2017-04-06T04:46:31.565Z,1018.55
2017-04-06T04:47:32.798Z,1018.56
2017-04-06T04:48:34.085Z,1018.57
2017-04-06T04:49:35.372Z,1018.57
2017-04-06T04:50:36.615Z,1018.54
2017-04-06T04:51:37.852Z,1018.56
2017-04-06T04:52:39.090Z,1018.54
2017-04-06T04:53:40.322Z,1018.53
2017-04-06T04:54:41.572Z,1018.5
2017-04-06T04:55:42.810Z,1018.49
2017-04-06T04:56:44.114Z,1018.51
2017-04-06T04:57:45.355Z,1018.5
2017-04-06T04:58:46.604Z,1018.49
2017-04-06T04:59:47.839Z,1018.51
2017-04-06T05:00:49.150Z,1018.56
2017-04-06T05:01:50.322Z,1018.57
2017-04-06T05:02:51.581Z,1018.56
2017-04-06T05:03:52.811Z,1018.54
2017-04-06T05:04:54.042Z,1018.45
2017-04-06T05:05:55.279Z,1018.5
2017-04-06T05:06:56.516Z,1018.56
2017-04-06T05:07:57.789Z,1018.54
2017-04-06T05:08:59.046Z,1018.54
2017-04-06T05:10:00.338Z,1018.49
2017-04-06T05:11:01.616Z,1018.47
2017-04-06T05:12:02.848Z,1018.46
2017-04-06T05:13:04.087Z,1018.41
2017-04-06T05:14:05.512Z,1018.41
2017-04-06T05:15:06.738Z,1018.42
2017-04-06T05:16:07.969Z,1018.43
2017-04-06T05:17:09.241Z,1018.45
2017-04-06T05:18:10.464Z,1018.45
2017-04-06T05:19:11.708Z,1018.44
2017-04-06T05:20:13.021Z,1018.41
2017-04-06T05:21:14.268Z,1018.44
2017-04-06T05:22:15.529Z,1018.44
2017-04-06T05:23:16.780Z,1018.48
2017-04-06T05:24:18.015Z,1018.45
2017-04-06T05:25:19.246Z,1018.53
2017-04-06T05:26:20.510Z,1018.51
2017-04-06T05:27:21.734Z,1018.55
2017-04-06T05:28:23.133Z,1018.57
2017-04-06T05:29:24.371Z,1018.54
2017-04-06T05:30:25.603Z,1018.5
2017-04-06T05:31:26.843Z,1018.48
2017-04-06T05:32:28.089Z,1018.4
2017-04-06T05:33:29.344Z,1018.39
2017-04-06T05:34:30.657Z,1018.43
2017-04-06T05:35:31.889Z,1018.42
2017-04-06T05:36:33.176Z,1018.47
2017-04-06T05:37:34.420Z,1018.51
2017-04-06T05:38:35.708Z,1018.54
2017-04-06T05:39:36.947Z,1018.52
2017-04-06T05:40:38.204Z,1018.51
2017-04-06T05:41:39.457Z,1018.57
2017-04-06T05:42:40.704Z,1018.52
2017-04-06T05:43:41.940Z,1018.55
2017-04-06T05:44:43.184Z,1018.55
2017-04-06T05:45:44.413Z,1018.55
2017-04-06T05:46:45.658Z,1018.57
2017-04-06T05:47:46.910Z,1018.63
2017-04-06T05:48:48.148Z,1018.68
2017-04-06T05:49:49.379Z,1018.77
2017-04-06T05:50:50.622Z,1018.81
2017-04-06T05:51:51.852Z,1018.82
2017-04-06T05:52:53.113Z,1018.81
2017-04-06T05:53:54.333Z,1018.75
2017-04-06T05:54:55.682Z,1018.74
2017-04-06T05:55:56.982Z,1018.78
2017-04-06T05:56:58.210Z,1018.82
2017-04-06T05:57:59.451Z,1018.82
2017-04-06T05:59:00.747Z,1018.88
2017-04-06T06:00:01.939Z,1018.88
2017-04-06T06:01:03.179Z,1018.84
2017-04-06T06:02:04.414Z,1018.82
2017-04-06T06:03:05.680Z,1018.82
2017-04-06T06:04:06.917Z,1018.86
2017-04-06T06:05:08.171Z,1018.88
2017-04-06T06:06:09.407Z,1018.9
2017-04-06T06:07:10.644Z,1018.93
2017-04-06T06:08:11.884Z,1018.91
2017-04-06T06:09:13.120Z,1018.95
2017-04-06T06:10:14.359Z,1018.96
2017-04-06T06:11:15.621Z,1019.03
2017-04-06T06:12:16.879Z,1019.05
2017-04-06T06:13:18.144Z,1018.99
2017-04-06T06:14:19.380Z,1018.99
2017-04-06T06:15:20.622Z,1019
2017-04-06T06:16:21.859Z,1019
2017-04-06T06:17:23.096Z,1019.09
2017-04-06T06:18:24.336Z,1019.1
2017-04-06T06:19:25.615Z,1019.09
2017-04-06T06:20:26.854Z,1019.13
2017-04-06T06:21:28.111Z,1019.1
2017-04-06T06:22:29.348Z,1019.07
2017-04-06T06:23:30.612Z,1019.06
2017-04-06T06:24:31.844Z,1019.08
2017-04-06T06:25:33.123Z,1019.05
2017-04-06T06:26:34.358Z,1019.06
2017-04-06T06:27:35.649Z,1019.08
2017-04-06T06:28:36.877Z,1019.06
2017-04-06T06:29:38.120Z,1019.08
2017-04-06T06:30:39.347Z,1019.13
2017-04-06T06:31:40.589Z,1019.16
2017-04-06T06:32:41.843Z,1019.2
2017-04-06T06:33:43.107Z,1019.24
2017-04-06T06:34:44.395Z,1019.28
2017-04-06T06:35:45.613Z,1019.35
2017-04-06T06:36:46.844Z,1019.36
2017-04-06T06:37:48.302Z,1019.33
2017-04-06T06:38:49.597Z,1019.31
2017-04-06T06:39:50.823Z,1019.32
2017-04-06T06:40:52.068Z,1019.29
2017-04-06T06:41:53.316Z,1019.27
2017-04-06T06:42:54.556Z,1019.31
2017-04-06T06:43:55.846Z,1019.28
2017-04-06T06:44:57.124Z,1019.29
2017-04-06T06:45:58.376Z,1019.28
2017-04-06T06:46:59.603Z,1019.3
2017-04-06T06:48:00.845Z,1019.21
2017-04-06T06:49:02.082Z,1019.23
2017-04-06T06:50:03.333Z,1019.29
2017-04-06T06:51:04.566Z,1019.29
2017-04-06T06:52:05.806Z,1019.32
2017-04-06T06:53:07.056Z,1019.31
2017-04-06T06:54:08.296Z,1019.33
2017-04-06T06:55:09.554Z,1019.29
2017-04-06T06:56:10.784Z,1019.33
2017-04-06T06:57:12.179Z,1019.35
2017-04-06T06:58:13.522Z,1019.4
2017-04-06T06:59:14.817Z,1019.39
2017-04-06T07:00:16.072Z,1019.4
2017-04-06T07:01:17.350Z,1019.42
2017-04-06T07:02:18.580Z,1019.43
2017-04-06T07:03:19.909Z,1019.37
2017-04-06T07:04:21.283Z,1019.41
2017-04-06T07:05:22.518Z,1019.43
2017-04-06T07:06:23.790Z,1019.46
2017-04-06T07:07:25.027Z,1019.47
2017-04-06T07:08:26.268Z,1019.47
2017-04-06T07:09:27.515Z,1019.51
2017-04-06T07:10:28.754Z,1019.53
2017-04-06T07:11:29.999Z,1019.56
2017-04-06T07:12:31.243Z,1019.55
2017-04-06T07:13:32.487Z,1019.53
2017-04-06T07:14:33.762Z,1019.49
2017-04-06T07:15:35.099Z,1019.52
2017-04-06T07:16:36.260Z,1019.54
2017-04-06T07:17:37.505Z,1019.57
2017-04-06T07:18:38.801Z,1019.58
2017-04-06T07:19:40.051Z,1019.63
2017-04-06T07:20:41.305Z,1019.65
2017-04-06T07:21:42.541Z,1019.69
2017-04-06T07:22:43.775Z,1019.67
2017-04-06T07:23:45.130Z,1019.64
2017-04-06T07:24:46.386Z,1019.61
2017-04-06T07:25:47.614Z,1019.6
2017-04-06T07:26:48.858Z,1019.52
2017-04-06T07:27:50.082Z,1019.53
2017-04-06T07:28:51.357Z,1019.58
2017-04-06T07:29:52.618Z,1019.66
2017-04-06T07:30:53.851Z,1019.46
2017-04-06T07:31:55.108Z,1019.54
2017-04-06T07:32:56.394Z,1019.49
2017-04-06T07:33:57.659Z,1019.41
2017-04-06T07:34:59.251Z,1019.5
2017-04-06T07:36:00.398Z,1019.45
2017-04-06T07:37:01.634Z,1019.55
2017-04-06T07:38:02.912Z,1019.63
2017-04-06T07:39:04.122Z,1019.61
2017-04-06T07:40:05.374Z,1019.55
2017-04-06T07:41:06.623Z,1019.61
2017-04-06T07:42:07.880Z,1019.6
2017-04-06T07:43:09.219Z,1019.59
2017-04-06T07:44:10.460Z,1019.63
2017-04-06T07:45:11.707Z,1019.59
2017-04-06T07:46:12.995Z,1019.67
2017-04-06T07:47:14.215Z,1019.65
2017-04-06T07:48:15.457Z,1019.71
2017-04-06T07:49:16.715Z,1019.69
2017-04-06T07:50:17.928Z,1019.69
2017-04-06T07:51:19.173Z,1019.65
2017-04-06T07:52:20.427Z,1019.61
2017-04-06T07:53:21.671Z,1019.6
2017-04-06T07:54:22.952Z,1019.65
2017-04-06T07:55:24.201Z,1019.7
2017-04-06T07:56:25.449Z,1019.75
2017-04-06T07:57:26.711Z,1019.72
2017-04-06T07:58:27.969Z,1019.75
2017-04-06T07:59:29.236Z,1019.72
2017-04-06T08:00:30.480Z,1019.65
2017-04-06T08:01:31.774Z,1019.68
2017-04-06T08:02:33.027Z,1019.69
2017-04-06T08:03:34.264Z,1019.84
2017-04-06T08:04:35.507Z,1019.93
2017-04-06T08:05:36.765Z,1019.76
2017-04-06T08:06:37.996Z,1019.81
2017-04-06T08:07:39.243Z,1019.81
2017-04-06T08:08:40.517Z,1019.48
2017-04-06T08:09:41.790Z,1019.52
2017-04-06T08:10:43.081Z,1019.59
2017-04-06T08:11:44.291Z,1019.67
2017-04-06T08:12:45.529Z,1019.69
2017-04-06T08:13:46.778Z,1019.73
2017-04-06T08:14:48.114Z,1019.79
2017-04-06T08:15:49.435Z,1020.01
2017-04-06T08:16:50.705Z,1020.07
2017-04-06T08:17:51.966Z,1019.73
2017-04-06T08:18:53.223Z,1019.73
2017-04-06T08:19:54.472Z,1019.67
2017-04-06T08:20:55.804Z,1019.68
2017-04-06T08:21:57.060Z,1019.75
2017-04-06T08:22:58.309Z,1020.2
2017-04-06T08:23:59.550Z,1020.21
2017-04-06T08:25:00.788Z,1019.93
2017-04-06T08:26:02.057Z,1020.14
2017-04-06T08:27:03.289Z,1019.94
2017-04-06T08:28:04.568Z,1019.99
2017-04-06T08:29:05.799Z,1019.93
2017-04-06T08:30:07.045Z,1019.86
2017-04-06T08:31:08.284Z,1019.84
2017-04-06T08:32:09.545Z,1019.88
2017-04-06T08:33:10.799Z,1019.88
2017-04-06T08:34:12.080Z,1020.2
2017-04-06T08:35:13.294Z,1020.14
2017-04-06T08:36:14.546Z,1020.25
2017-04-06T08:37:15.790Z,1020.33
2017-04-06T08:38:17.027Z,1020.24
2017-04-06T08:39:18.274Z,1020.15
2017-04-06T08:40:19.659Z,1020.17
2017-04-06T08:41:20.934Z,1020.27
2017-04-06T08:42:22.181Z,1020.11
2017-04-06T08:43:23.432Z,1020.07
2017-04-06T08:44:24.709Z,1019.99
2017-04-06T08:45:25.940Z,1020.05
2017-04-06T08:46:27.207Z,1020.01
2017-04-06T08:47:28.492Z,1019.95
2017-04-06T08:48:29.743Z,1019.93
2017-04-06T08:49:31.019Z,1020
2017-04-06T08:50:32.242Z,1020
2017-04-06T08:51:33.502Z,1020.02
2017-04-06T08:52:34.827Z,1020.01
2017-04-06T08:53:36.064Z,1020.02
2017-04-06T08:54:37.312Z,1020.02
2017-04-06T08:55:38.593Z,1020.05
2017-04-06T08:56:39.843Z,1020.03
2017-04-06T08:57:41.205Z,1020.05
2017-04-06T08:58:42.452Z,1020.03
2017-04-06T08:59:43.770Z,1020
2017-04-06T09:00:45.069Z,1020
2017-04-06T09:01:46.308Z,1019.97
2017-04-06T09:02:47.556Z,1019.97
2017-04-06T09:03:48.838Z,1019.97
2017-04-06T09:04:50.086Z,1020.02
2017-04-06T09:05:51.477Z,1020.08
2017-04-06T09:06:52.705Z,1020.07
2017-04-06T09:07:53.943Z,1020.08
2017-04-06T09:08:55.194Z,1020.13
2017-04-06T09:09:56.435Z,1020.25
2017-04-06T09:10:57.861Z,1020.22
2017-04-06T09:11:59.099Z,1020.08
2017-04-06T09:13:00.319Z,1020.05
2017-04-06T09:14:01.575Z,1020.05
2017-04-06T09:15:02.818Z,1019.99
2017-04-06T09:16:04.043Z,1020.03
2017-04-06T09:17:05.328Z,1020.05
2017-04-06T09:18:06.579Z,1020.03
2017-04-06T09:19:07.814Z,1020.03
2017-04-06T09:20:09.100Z,1020
2017-04-06T09:21:10.324Z,1020.1
2017-04-06T09:22:11.561Z,1020.11
2017-04-06T09:23:12.880Z,1020.16
2017-04-06T09:24:14.058Z,1020.15
2017-04-06T09:25:15.300Z,1020.2
2017-04-06T09:26:16.543Z,1020.23
2017-04-06T09:27:17.785Z,1020.22
2017-04-06T09:28:19.029Z,1020.28
2017-04-06T09:29:20.284Z,1020.34
2017-04-06T09:30:21.555Z,1020.3
2017-04-06T09:31:22.906Z,1020.26
2017-04-06T09:32:24.199Z,1020.28
2017-04-06T09:33:25.432Z,1020.24
2017-04-06T09:34:26.679Z,1020.23
2017-04-06T09:35:27.922Z,1020.21
2017-04-06T09:36:29.182Z,1020.25
2017-04-06T09:37:30.433Z,1020.28
2017-04-06T09:38:31.675Z,1020.26
2017-04-06T09:39:32.918Z,1020.24
2017-04-06T09:40:34.145Z,1020.23
2017-04-06T09:41:35.460Z,1020.33
2017-04-06T09:42:36.712Z,1020.38
2017-04-06T09:43:38.066Z,1020.39
2017-04-06T09:44:39.361Z,1020.44
2017-04-06T09:45:40.627Z,1020.54
2017-04-06T09:46:41.971Z,1020.53
2017-04-06T09:47:43.229Z,1020.57
2017-04-06T09:48:44.460Z,1020.49
2017-04-06T09:49:45.714Z,1020.52
2017-04-06T09:50:46.972Z,1020.56
2017-04-06T09:51:48.204Z,1020.44
2017-04-06T09:52:49.442Z,1020.48
2017-04-06T09:53:50.679Z,1021.04
2017-04-06T09:54:52.081Z,1021.04
2017-04-06T09:55:53.471Z,1020.67
2017-04-06T09:56:54.716Z,1020.83
2017-04-06T09:57:55.981Z,1020.76
2017-04-06T09:58:57.211Z,1020.54
2017-04-06T09:59:58.457Z,1020.48
2017-04-06T10:00:59.707Z,1020.51
2017-04-06T10:02:00.952Z,1020.38
2017-04-06T10:03:02.202Z,1020.78
2017-04-06T10:04:03.437Z,1020.38
2017-04-06T10:05:04.688Z,1020.36
2017-04-06T10:06:05.970Z,1020.41
2017-04-06T10:07:07.232Z,1020.93
2017-04-06T10:08:08.445Z,1020.42
2017-04-06T10:09:09.670Z,1020.31
2017-04-06T10:10:10.959Z,1020.38
2017-04-06T10:11:12.184Z,1020.4
2017-04-06T10:12:13.441Z,1020.4
2017-04-06T10:13:14.707Z,1020.43
2017-04-06T10:14:15.963Z,1020.29
2017-04-06T10:15:17.188Z,1020.2
2017-04-06T10:16:18.437Z,1020.3
2017-04-06T10:17:19.677Z,1020.29
2017-04-06T10:18:20.927Z,1020.37
2017-04-06T10:19:22.183Z,1020.38
2017-04-06T10:20:23.515Z,1020.33
2017-04-06T10:21:24.756Z,1020.3
2017-04-06T10:22:26.003Z,1020.32
2017-04-06T10:23:27.243Z,1020.34
2017-04-06T10:24:28.480Z,1020.67
2017-04-06T10:25:29.747Z,1020.46
2017-04-06T10:26:31.068Z,1020.43
2017-04-06T10:27:32.309Z,1020.44
2017-04-06T10:28:33.550Z,1020.37
2017-04-06T10:29:34.801Z,1020.43
2017-04-06T10:30:36.038Z,1020.33
2017-04-06T10:31:37.356Z,1020.5
2017-04-06T10:32:38.550Z,1020.37
2017-04-06T10:33:39.837Z,1020.31
2017-04-06T10:34:41.092Z,1020.31
2017-04-06T10:35:42.324Z,1020.3
2017-04-06T10:36:43.562Z,1020.23
2017-04-06T10:37:44.813Z,1020.36
2017-04-06T10:38:46.078Z,1020.34
2017-04-06T10:39:47.425Z,1020.35
2017-04-06T10:40:48.698Z,1020.36
2017-04-06T10:41:49.931Z,1020.34
2017-04-06T10:42:51.176Z,1020.28
2017-04-06T10:43:52.425Z,1020.24
2017-04-06T10:44:53.695Z,1020.26
2017-04-06T10:45:54.968Z,1020.23
2017-04-06T10:46:56.232Z,1020.17
2017-04-06T10:47:57.473Z,1020.19
2017-04-06T10:48:58.712Z,1020.13
2017-04-06T10:50:00.042Z,1020.11
2017-04-06T10:51:01.348Z,1020.11
2017-04-06T10:52:02.601Z,1020.13
2017-04-06T10:53:03.839Z,1020.13
2017-04-06T10:54:05.132Z,1020.02
2017-04-06T10:55:06.582Z,1020.04
2017-04-06T10:56:07.919Z,1020
2017-04-06T10:57:09.177Z,1019.97
2017-04-06T10:58:10.402Z,1019.93
2017-04-06T10:59:11.648Z,1020.02
2017-04-06T11:00:12.990Z,1020.01
2017-04-06T11:01:14.233Z,1019.98
2017-04-06T11:02:15.481Z,1019.94
2017-04-06T11:03:16.747Z,1019.93
2017-04-06T11:04:17.988Z,1019.96
2017-04-06T11:05:19.377Z,1020.02
2017-04-06T11:06:20.600Z,1019.99
2017-04-06T11:07:21.867Z,1020.02
2017-04-06T11:08:23.086Z,1020.07
2017-04-06T11:09:24.329Z,1020.1
2017-04-06T11:10:25.625Z,1020.16
2017-04-06T11:11:26.906Z,1020.15
2017-04-06T11:12:28.152Z,1020.18
2017-04-06T11:13:29.394Z,1020.19
2017-04-06T11:14:30.641Z,1020.17
2017-04-06T11:15:31.880Z,1020.15
2017-04-06T11:16:33.168Z,1020.16
2017-04-06T11:17:34.485Z,1020.24
2017-04-06T11:18:35.708Z,1020.18
2017-04-06T11:19:36.950Z,1020.25
2017-04-06T11:20:38.213Z,1020.25
2017-04-06T11:21:39.447Z,1020.23
2017-04-06T11:22:40.784Z,1020.21
2017-04-06T11:23:42.032Z,1020.24
2017-04-06T11:24:43.303Z,1020.17
2017-04-06T11:25:44.540Z,1020.19
2017-04-06T11:26:45.765Z,1020.23
2017-04-06T11:27:47.226Z,1020.2
2017-04-06T11:28:48.360Z,1020.16
2017-04-06T11:29:49.668Z,1020.19
2017-04-06T11:30:50.919Z,1020.13
2017-04-06T11:31:52.157Z,1020.18
2017-04-06T11:32:53.407Z,1020.24
2017-04-06T11:33:54.647Z,1020.18
2017-04-06T11:34:55.897Z,1020.15
2017-04-06T11:35:57.186Z,1020.1
2017-04-06T11:36:58.404Z,1020.11
2017-04-06T11:37:59.640Z,1020.06
2017-04-06T11:39:00.884Z,1020.03
2017-04-06T11:40:02.127Z,1020.01
2017-04-06T11:41:03.420Z,1019.97
2017-04-06T11:42:04.664Z,1019.97
2017-04-06T11:43:05.907Z,1019.97
2017-04-06T11:44:07.161Z,1019.99
2017-04-06T11:45:08.409Z,1020.07
2017-04-06T11:46:09.664Z,1020.07
2017-04-06T11:47:10.897Z,1020.02
2017-04-06T11:48:12.195Z,1019.97
2017-04-06T11:49:13.617Z,1019.96
2017-04-06T11:50:14.965Z,1020.05
2017-04-06T11:51:16.208Z,1020.04
2017-04-06T11:52:17.442Z,1020.06
2017-04-06T11:53:18.716Z,1020.05
2017-04-06T11:54:20.033Z,1020.06
2017-04-06T11:55:21.263Z,1020.02
2017-04-06T11:56:22.502Z,1020.14
2017-04-06T11:57:23.760Z,1020.09
2017-04-06T11:58:25.010Z,1020.14
2017-04-06T11:59:26.337Z,1020.16
2017-04-06T12:00:27.598Z,1020.16
2017-04-06T12:01:28.939Z,1020.1
2017-04-06T12:02:30.172Z,1020.07
2017-04-06T12:03:31.423Z,1020.08
2017-04-06T12:04:32.666Z,1020
2017-04-06T12:05:33.898Z,1020.07
2017-04-06T12:06:35.230Z,1020.06
2017-04-06T12:07:36.471Z,1020.02
2017-04-06T12:08:37.728Z,1020.09
2017-04-06T12:09:39.002Z,1020.06
2017-04-06T12:10:40.223Z,1020.01
2017-04-06T12:11:41.531Z,1019.95
2017-04-06T12:12:42.876Z,1020.01
2017-04-06T12:13:44.120Z,1020.01
2017-04-06T12:14:45.357Z,1019.99
2017-04-06T12:15:46.616Z,1019.96
2017-04-06T12:16:47.881Z,1019.93
2017-04-06T12:17:49.184Z,1019.88
2017-04-06T12:18:50.455Z,1019.91
2017-04-06T12:19:51.740Z,1019.95
2017-04-06T12:20:53.055Z,1019.94
2017-04-06T12:21:54.329Z,1019.93
2017-04-06T12:22:55.715Z,1019.88
2017-04-06T12:23:56.968Z,1019.87